Aviation Digital Data Service (ADDS)

Output produced by METARs form (1138 UTC 18 April 2015)
found at http://aviationweather.gov/adds/metars/
 
KPOU 180524Z 1806/1906 VRB02KT P6SM SKC 
     TEMPO 1806/1810 2SM BR 
     FM181500 25005KT P6SM SKC 
     FM181700 28012G22KT P6SM FEW050 
     FM190000 32008KT P6SM SKC